Breitung, Minnesota
Current Conditions -  °F | °C
As of 5:54 PM on Saturday 22 Nov 2014 (Local Time) from KCQM Reporting Station
Haze Haze  
Wind Chill: 30°   Ceiling: Unl
Heat Index: 30°   Visibility: 5mi
Dew Point: 30°   Wind: 0mph
Humidity: 100%   Direction: NA
Pressure: 29.56"   Gusts: NA
Location:  47.7992°N, 92.3042°W
Report Text: KCQM 222354Z AUTO 00000KT 5SM BR CLR M01/M01 A2956 RMK AO2
Loading
Personal Weather Stations






























Interactive Weather Map New forecast layout! Learn more

10-Day Weather Forecast

Advertisements
Track Severe Weather on mobile